Time;durP1;ratioP1;P1;durP2;ratioP2;P2;SDS_P1;SDS_P2;PMS_P1;PMS_P2;Temp;Humidity;BMP_temperature;BMP_pressure;BME280_temperature;BME280_humidity;BME280_pressure;Samples;Min_cycle;Max_cycle;Signal;HPM_P1;HPM_P2
2023/05/23 00:00:59;;;;;;;6.90;4.30;;;17.00;80.90;;;;;;5073504;28;20086;-70
2023/05/23 00:03:25;;;;;;;7.53;5.18;;;17.00;80.90;;;;;;5081221;28;20085;-68
2023/05/23 00:05:51;;;;;;;6.72;4.70;;;17.00;81.00;;;;;;5074614;28;20074;-69
2023/05/23 00:08:17;;;;;;;8.10;5.05;;;17.00;81.10;;;;;;5070531;28;20365;-69
2023/05/23 00:10:44;;;;;;;8.32;5.68;;;17.00;81.10;;;;;;5069300;28;20111;-69
2023/05/23 00:13:11;;;;;;;8.10;5.65;;;17.00;81.00;;;;;;5071874;28;20028;-69
2023/05/23 00:15:40;;;;;;;10.18;6.05;;;17.00;81.10;;;;;;5070439;28;20086;-67
2023/05/23 00:18:12;;;;;;;7.50;5.28;;;17.00;81.30;;;;;;5070131;28;20021;-68
2023/05/23 00:20:42;;;;;;;;;;;16.90;81.40;;;;;;5071998;28;20082;-69
2023/05/23 00:23:17;;;;;;;10.95;6.05;;;16.90;81.40;;;;;;5081753;28;19908;-69
2023/05/23 00:25:47;;;;;;;12.48;6.57;;;16.90;81.80;;;;;;5090761;28;20016;-68
2023/05/23 00:28:13;;;;;;;7.47;6.00;;;16.80;81.90;;;;;;5071947;28;20020;-68
2023/05/23 00:30:39;;;;;;;9.27;5.60;;;16.80;82.20;;;;;;5074881;28;20028;-68
2023/05/23 00:33:05;;;;;;;11.20;5.78;;;16.80;82.30;;;;;;5081127;28;20028;-68
2023/05/23 00:35:30;;;;;;;11.10;7.13;;;16.80;82.40;;;;;;5089116;28;20119;-69
2023/05/23 00:37:56;;;;;;;9.93;6.40;;;16.70;82.60;;;;;;5075871;28;20475;-70
2023/05/23 00:40:22;;;;;;;10.77;6.82;;;16.70;82.80;;;;;;5069398;28;20035;-69
2023/05/23 00:42:47;;;;;;;13.77;7.35;;;16.70;83.10;;;;;;5076562;28;20374;-70
2023/05/23 00:45:14;;;;;;;10.73;7.07;;;16.60;83.50;;;;;;5090132;28;20012;-70
2023/05/23 00:47:40;;;;;;;12.95;8.35;;;16.60;83.90;;;;;;5073262;28;20046;-69
2023/05/23 00:50:13;;;;;;;13.27;7.30;;;16.60;84.20;;;;;;5070507;28;20020;-69
2023/05/23 00:52:39;;;;;;;11.73;7.05;;;16.50;84.50;;;;;;5071365;28;20029;-70
2023/05/23 00:55:07;;;;;;;11.23;7.50;;;16.50;84.80;;;;;;5075773;28;20099;-70
2023/05/23 00:57:39;;;;;;;11.82;6.72;;;16.40;85.10;;;;;;5075317;28;20035;-70
2023/05/23 01:00:09;;;;;;;;;;;16.40;85.40;;;;;;5069643;28;20017;-68
2023/05/23 01:02:40;;;;;;;12.45;7.75;;;16.30;85.60;;;;;;5069559;28;19908;-69
2023/05/23 01:05:06;;;;;;;11.55;7.32;;;16.20;86.30;;;;;;5082058;28;20425;-69
2023/05/23 01:07:31;;;;;;;11.38;6.63;;;16.20;86.70;;;;;;5076889;28;20056;-70
2023/05/23 01:09:57;;;;;;;12.15;6.75;;;16.10;87.00;;;;;;5079997;28;20067;-70
2023/05/23 01:13:05;;;;;;;11.35;6.78;;;16.10;87.40;;;;;;5068831;28;21209;-73
2023/05/23 01:15:39;;;;;;;9.05;6.00;;;16.00;87.70;;;;;;5071731;28;20364;-69
2023/05/23 01:18:33;;;;;;;9.00;5.80;;;16.00;87.90;;;;;;5077579;28;20590;-68
2023/05/23 01:21:05;;;;;;;8.98;6.18;;;16.00;88.00;;;;;;5046039;28;20103;-68
2023/05/23 01:23:51;;;;;;;10.38;6.57;;;16.10;88.00;;;;;;5069465;28;20511;-69
2023/05/23 01:26:50;;;;;;;9.10;5.75;;;16.10;87.90;;;;;;5087254;28;20020;-69
2023/05/23 01:29:27;;;;;;;7.63;4.88;;;16.00;88.10;;;;;;5074995;28;20029;-69
2023/05/23 01:31:56;;;;;;;7.60;5.03;;;16.00;88.20;;;;;;5073253;28;20402;-70
2023/05/23 01:34:23;;;;;;;8.27;5.22;;;16.00;88.20;;;;;;5070462;28;20440;-69
2023/05/23 01:36:55;;;;;;;9.48;5.65;;;16.10;88.10;;;;;;5089618;28;20081;-69
2023/05/23 01:39:21;;;;;;;7.97;5.13;;;16.10;88.10;;;;;;5075460;28;20032;-69
2023/05/23 01:41:49;;;;;;;10.88;6.20;;;16.10;88.00;;;;;;5076432;28;20021;-69
2023/05/23 01:44:15;;;;;;;8.13;4.88;;;16.10;88.00;;;;;;5074765;28;20386;-69
2023/05/23 01:46:43;;;;;;;11.38;5.85;;;16.10;88.00;;;;;;5069764;28;20025;-68
2023/05/23 01:49:11;;;;;;;9.82;5.55;;;16.10;87.90;;;;;;5066791;28;20032;-70
2023/05/23 01:51:38;;;;;;;9.85;5.97;;;16.10;87.80;;;;;;5082492;28;20016;-70
2023/05/23 01:54:04;;;;;;;8.10;5.13;;;16.10;87.70;;;;;;5080022;28;20100;-70
2023/05/23 01:56:30;;;;;;;9.60;6.13;;;16.00;87.80;;;;;;5076434;28;20131;-70
2023/05/23 01:58:56;;;;;;;8.32;5.82;;;16.00;87.80;;;;;;5069626;28;20100;-69
2023/05/23 02:01:21;;;;;;;7.68;5.10;;;16.00;87.90;;;;;;5069176;28;20028;-71
2023/05/23 02:03:47;;;;;;;8.45;5.57;;;16.00;87.90;;;;;;5069048;28;20024;-70
2023/05/23 02:06:13;;;;;;;9.30;5.95;;;16.00;87.90;;;;;;5083070;28;20095;-72
2023/05/23 02:08:38;;;;;;;8.88;5.82;;;16.00;87.90;;;;;;5071185;28;20017;-69
2023/05/23 02:11:04;;;;;;;9.80;5.72;;;16.00;88.00;;;;;;5074213;28;20028;-69
2023/05/23 02:13:30;;;;;;;8.80;5.20;;;16.00;88.00;;;;;;5080490;28;20032;-70
2023/05/23 02:15:55;;;;;;;8.43;5.20;;;16.00;87.80;;;;;;5074815;28;20025;-70
2023/05/23 02:18:21;;;;;;;10.23;5.55;;;16.00;87.80;;;;;;5075220;28;20024;-70
2023/05/23 02:20:47;;;;;;;8.05;5.28;;;16.10;87.80;;;;;;5071920;28;20036;-71
2023/05/23 02:23:12;;;;;;;8.93;5.90;;;16.10;87.80;;;;;;5076846;28;20547;-69
2023/05/23 02:25:38;;;;;;;8.57;5.57;;;16.10;87.90;;;;;;5077526;28;20166;-70
2023/05/23 02:28:03;;;;;;;10.98;6.13;;;16.00;88.20;;;;;;5076035;28;20024;-70
2023/05/23 02:30:29;;;;;;;8.65;5.90;;;16.00;88.50;;;;;;5077949;28;20028;-69
2023/05/23 02:32:56;;;;;;;9.30;5.93;;;15.90;88.70;;;;;;5072317;28;20025;-70
2023/05/23 02:35:21;;;;;;;8.10;5.15;;;15.90;88.90;;;;;;5072148;28;20052;-70
2023/05/23 02:37:47;;;;;;;11.88;5.50;;;15.80;88.80;;;;;;5072161;28;20021;-69
2023/05/23 02:40:12;;;;;;;12.38;6.75;;;15.80;88.90;;;;;;5072190;28;20397;-69
2023/05/23 02:42:38;;;;;;;10.13;6.18;;;15.90;89.00;;;;;;5071913;28;20035;-70
2023/05/23 02:45:04;;;;;;;10.57;6.32;;;15.80;89.00;;;;;;5086830;28;20099;-71
2023/05/23 02:47:29;;;;;;;12.45;6.97;;;15.70;89.10;;;;;;5072322;28;20029;-69
2023/05/23 02:49:55;;;;;;;10.57;6.47;;;15.70;89.30;;;;;;5071329;28;20031;-69
2023/05/23 02:52:21;;;;;;;11.93;6.80;;;15.70;89.40;;;;;;5069778;28;20062;-69
2023/05/23 02:54:46;;;;;;;12.43;6.63;;;15.70;89.50;;;;;;5079251;28;20063;-72
2023/05/23 02:57:12;;;;;;;13.18;7.68;;;15.60;89.60;;;;;;5072158;28;20024;-70
2023/05/23 02:59:37;;;;;;;10.77;6.28;;;15.70;89.50;;;;;;5075762;28;20035;-70
2023/05/23 03:02:03;;;;;;;12.27;7.55;;;15.60;89.40;;;;;;5067322;28;20025;-71
2023/05/23 03:04:28;;;;;;;12.40;6.78;;;15.70;89.50;;;;;;5079151;28;20024;-71
2023/05/23 03:06:54;;;;;;;11.23;6.25;;;15.70;89.50;;;;;;5071762;28;20035;-70
2023/05/23 03:09:20;;;;;;;9.80;5.50;;;15.70;89.50;;;;;;5074700;28;20107;-69
2023/05/23 03:11:45;;;;;;;10.07;6.10;;;15.80;89.20;;;;;;5071579;28;20027;-68
2023/05/23 03:14:11;;;;;;;10.52;6.22;;;15.80;89.10;;;;;;5072116;28;20016;-70
2023/05/23 03:16:37;;;;;;;9.70;5.90;;;15.70;89.10;;;;;;5074944;28;20048;-68
2023/05/23 03:19:03;;;;;;;9.80;5.82;;;15.70;89.30;;;;;;5074610;28;20035;-69
2023/05/23 03:21:30;;;;;;;9.48;5.22;;;15.70;89.40;;;;;;5078163;28;20107;-69
2023/05/23 03:23:56;;;;;;;9.05;5.30;;;15.60;89.30;;;;;;5086773;28;20064;-69
2023/05/23 03:26:21;;;;;;;7.38;4.70;;;15.60;90.00;;;;;;5070728;28;20427;-68
2023/05/23 03:28:48;;;;;;;7.65;5.07;;;15.60;89.40;;;;;;5071229;28;20375;-68
2023/05/23 03:31:14;;;;;;;10.63;5.45;;;15.60;89.40;;;;;;5076933;28;20496;-71
2023/05/23 03:33:39;;;;;;;6.90;5.03;;;15.60;89.40;;;;;;5091597;28;20081;-70
2023/05/23 03:36:05;;;;;;;7.47;4.65;;;15.60;89.40;;;;;;5073051;28;20549;-69
2023/05/23 03:38:31;;;;;;;7.22;4.30;;;15.50;89.40;;;;;;5074142;28;20625;-68
2023/05/23 03:40:56;;;;;;;7.95;4.90;;;15.60;89.40;;;;;;5080946;28;20031;-70
2023/05/23 03:43:22;;;;;;;8.25;4.70;;;15.50;89.40;;;;;;5068245;28;20024;-70
2023/05/23 03:45:48;;;;;;;8.98;5.80;;;15.50;89.40;;;;;;5070501;28;20042;-70
2023/05/23 03:48:13;;;;;;;10.02;5.72;;;15.50;89.30;;;;;;5070580;28;20033;-69
2023/05/23 03:50:39;;;;;;;9.50;5.32;;;15.50;89.30;;;;;;5070735;28;20029;-70
2023/05/23 03:53:04;;;;;;;9.98;5.85;;;15.50;89.30;;;;;;5071889;28;20028;-70
2023/05/23 03:55:30;;;;;;;10.00;5.25;;;15.50;89.30;;;;;;5080599;28;20016;-71
2023/05/23 03:57:56;;;;;;;11.02;5.75;;;15.50;89.10;;;;;;5082883;28;20052;-71
2023/05/23 04:00:22;;;;;;;8.52;5.63;;;15.50;89.10;;;;;;5071268;28;20043;-70
2023/05/23 04:02:48;;;;;;;7.97;5.20;;;15.50;88.90;;;;;;5071443;28;20024;-71
2023/05/23 04:05:14;;;;;;;10.07;5.70;;;15.60;88.80;;;;;;5072997;28;20040;-71
2023/05/23 04:07:40;;;;;;;8.65;5.45;;;15.60;88.60;;;;;;5074244;28;20044;-70
2023/05/23 04:10:07;;;;;;;6.80;5.13;;;15.60;88.50;;;;;;5070530;28;20095;-70
2023/05/23 04:12:33;;;;;;;9.40;5.45;;;15.60;88.30;;;;;;5072386;28;20027;-71
2023/05/23 04:14:58;;;;;;;9.38;5.60;;;15.60;88.20;;;;;;5073329;28;20013;-70
2023/05/23 04:17:24;;;;;;;9.07;5.10;;;15.70;88.10;;;;;;5068990;28;20020;-71
2023/05/23 04:19:50;;;;;;;9.40;5.07;;;15.70;87.80;;;;;;5070490;28;20024;-69
2023/05/23 04:22:16;;;;;;;9.00;5.57;;;15.70;87.70;;;;;;5078258;28;20043;-69
2023/05/23 04:24:42;;;;;;;13.32;7.05;;;15.70;87.60;;;;;;5070572;28;20063;-69
2023/05/23 04:27:07;;;;;;;11.27;6.35;;;15.70;87.40;;;;;;5069662;28;20028;-70
2023/05/23 04:29:34;;;;;;;13.90;6.97;;;15.60;87.20;;;;;;5069369;28;20024;-71
2023/05/23 04:32:01;;;;;;;11.85;6.10;;;15.60;87.30;;;;;;5069626;28;20309;-69
2023/05/23 04:34:26;;;;;;;11.45;6.18;;;15.60;87.30;;;;;;5071030;28;20013;-68
2023/05/23 04:36:53;;;;;;;11.60;6.03;;;15.60;87.20;;;;;;5080298;28;20067;-69
2023/05/23 04:39:19;;;;;;;12.32;6.18;;;15.50;87.00;;;;;;5070238;28;20027;-69
2023/05/23 04:41:45;;;;;;;12.30;6.43;;;15.50;87.20;;;;;;5071933;28;20020;-68
2023/05/23 04:44:11;;;;;;;13.02;5.95;;;15.50;87.10;;;;;;5069834;28;20033;-68
2023/05/23 04:46:40;;;;;;;15.27;6.70;;;15.50;87.00;;;;;;5077459;28;20058;-68
2023/05/23 04:49:07;;;;;;;11.57;6.30;;;15.40;86.80;;;;;;5062983;28;20016;-68
2023/05/23 04:51:32;;;;;;;12.13;6.65;;;15.40;86.70;;;;;;5070522;28;20039;-69
2023/05/23 04:53:58;;;;;;;10.80;5.75;;;15.40;86.70;;;;;;5083909;28;20020;-69
2023/05/23 04:56:26;;;;;;;11.25;6.03;;;15.40;86.60;;;;;;5082573;28;20067;-67
2023/05/23 04:58:53;;;;;;;11.10;5.80;;;15.40;86.60;;;;;;5069298;28;20028;-69
2023/05/23 05:01:18;;;;;;;11.50;5.97;;;15.40;86.70;;;;;;5069521;28;20040;-71
2023/05/23 05:03:44;;;;;;;11.32;5.93;;;15.40;86.60;;;;;;5077003;28;20038;-68
2023/05/23 05:06:10;;;;;;;13.43;6.93;;;15.40;86.60;;;;;;5078312;28;20444;-69
2023/05/23 05:08:35;;;;;;;10.52;5.70;;;15.40;86.50;;;;;;5071381;28;20309;-69
2023/05/23 05:11:01;;;;;;;14.98;6.93;;;15.40;86.40;;;;;;5083175;28;20029;-70
2023/05/23 05:13:26;;;;;;;13.68;6.72;;;15.30;86.60;;;;;;5074803;28;20514;-70
2023/05/23 05:15:52;;;;;;;12.18;6.00;;;15.30;86.80;;;;;;5069626;28;20136;-68
2023/05/23 05:18:18;;;;;;;16.25;6.70;;;15.20;87.10;;;;;;5068685;28;20139;-68
2023/05/23 05:20:43;;;;;;;13.27;6.80;;;15.20;87.30;;;;;;5068825;28;20465;-70
2023/05/23 05:23:10;;;;;;;13.77;6.45;;;15.10;87.50;;;;;;5070234;28;20031;-72
2023/05/23 05:25:37;;;;;;;12.40;5.85;;;15.10;87.80;;;;;;5075789;28;20470;-71
2023/05/23 05:28:04;;;;;;;15.50;6.40;;;15.10;87.90;;;;;;5077963;28;20403;-69
2023/05/23 05:30:34;;;;;;;12.77;5.85;;;15.00;87.90;;;;;;5077275;28;20221;-71
2023/05/23 05:33:00;;;;;;;11.93;5.80;;;14.90;88.20;;;;;;5069179;28;20035;-70
2023/05/23 05:35:26;;;;;;;12.02;4.95;;;14.90;88.30;;;;;;5069845;28;20386;-69
2023/05/23 05:37:52;;;;;;;12.13;5.55;;;14.90;88.20;;;;;;5076551;28;20021;-71
2023/05/23 05:40:17;;;;;;;12.18;5.07;;;14.90;88.20;;;;;;5069367;28;20032;-69
2023/05/23 05:42:43;;;;;;;8.73;4.90;;;14.80;88.20;;;;;;5080777;28;20024;-69
2023/05/23 05:45:10;;;;;;;13.80;5.85;;;14.80;88.20;;;;;;5072213;28;20563;-70
2023/05/23 05:47:37;;;;;;;13.48;5.88;;;14.80;88.20;;;;;;5075659;28;20023;-71
2023/05/23 05:50:08;;;;;;;10.80;4.75;;;14.80;88.10;;;;;;5089817;28;20685;-69
2023/05/23 05:52:37;;;;;;;10.25;4.50;;;14.70;88.10;;;;;;5090995;28;20107;-67
2023/05/23 05:55:06;;;;;;;11.98;5.38;;;14.70;88.20;;;;;;5078293;28;20020;-70
2023/05/23 05:57:32;;;;;;;10.60;5.13;;;14.70;88.10;;;;;;5086088;28;20025;-70
2023/05/23 05:59:58;;;;;;;9.88;4.47;;;14.70;88.00;;;;;;5079267;28;20505;-73
2023/05/23 06:02:23;;;;;;;12.88;5.80;;;14.70;88.00;;;;;;5080371;28;20098;-68
2023/05/23 06:04:49;;;;;;;12.70;5.38;;;14.70;87.80;;;;;;5073192;28;20031;-68
2023/05/23 06:07:15;;;;;;;12.45;4.97;;;14.60;87.70;;;;;;5073316;28;20364;-70
2023/05/23 06:09:40;;;;;;;9.38;5.00;;;14.50;87.60;;;;;;5071400;28;20090;-69
2023/05/23 06:12:06;;;;;;;8.27;4.30;;;14.50;87.60;;;;;;5073125;28;20034;-69
2023/05/23 06:14:32;;;;;;;9.18;4.38;;;14.50;87.70;;;;;;5075177;28;20012;-70
2023/05/23 06:16:58;;;;;;;9.70;4.30;;;14.50;87.60;;;;;;5076680;28;20390;-70
2023/05/23 06:19:24;;;;;;;9.40;4.35;;;14.50;87.50;;;;;;5082585;28;20028;-72
2023/05/23 06:21:49;;;;;;;10.48;4.47;;;14.50;87.30;;;;;;5068121;28;20480;-70
2023/05/23 06:24:15;;;;;;;9.38;3.95;;;14.50;87.20;;;;;;5074334;28;20021;-71
2023/05/23 06:26:40;;;;;;;9.93;4.55;;;14.50;87.20;;;;;;5075464;28;20521;-70
2023/05/23 06:29:06;;;;;;;11.15;5.00;;;14.50;87.10;;;;;;5073411;28;20378;-70
2023/05/23 06:31:31;;;;;;;9.93;4.70;;;14.50;86.80;;;;;;5072746;28;20021;-67
2023/05/23 06:33:57;;;;;;;11.15;5.15;;;14.50;86.40;;;;;;5069817;28;20028;-68
2023/05/23 06:36:22;;;;;;;11.13;4.88;;;14.40;85.80;;;;;;5073223;28;20025;-67
2023/05/23 06:38:48;;;;;;;15.10;5.75;;;14.30;85.80;;;;;;5070911;28;20548;-69
2023/05/23 06:41:13;;;;;;;8.02;4.63;;;14.30;85.60;;;;;;5068796;28;20558;-68
2023/05/23 06:43:39;;;;;;;12.65;4.38;;;14.30;85.40;;;;;;5070274;28;20027;-66
2023/05/23 06:46:05;;;;;;;10.27;4.35;;;14.30;86.10;;;;;;5087549;28;20202;-69
2023/05/23 06:48:31;;;;;;;10.32;4.53;;;14.30;85.30;;;;;;5071315;28;20025;-67
2023/05/23 06:50:56;;;;;;;11.88;4.70;;;14.40;84.70;;;;;;5070204;28;20040;-67
2023/05/23 06:53:22;;;;;;;9.93;4.55;;;14.30;84.30;;;;;;5067557;28;20025;-69
2023/05/23 06:55:47;;;;;;;12.77;4.60;;;14.30;83.70;;;;;;5071895;28;20445;-67
2023/05/23 06:58:13;;;;;;;10.27;4.45;;;14.30;83.30;;;;;;5070815;28;20630;-68
2023/05/23 07:00:39;;;;;;;8.75;4.10;;;14.40;83.00;;;;;;5058876;28;20553;-68
2023/05/23 07:03:05;;;;;;;9.70;4.28;;;14.40;82.50;;;;;;5069011;28;20459;-69
2023/05/23 07:05:32;;;;;;;9.82;4.93;;;14.50;82.30;;;;;;5076187;28;20029;-67
2023/05/23 07:07:57;;;;;;;10.38;4.43;;;14.60;81.30;;;;;;5071583;28;20108;-69
2023/05/23 07:10:23;;;;;;;11.73;4.55;;;14.70;80.30;;;;;;5074457;28;20095;-68
2023/05/23 07:12:49;;;;;;;8.43;4.15;;;14.80;78.80;;;;;;5065651;28;20469;-68
2023/05/23 07:15:15;;;;;;;8.75;4.40;;;14.90;77.70;;;;;;5077187;28;20028;-69
2023/05/23 07:17:40;;;;;;;11.27;4.20;;;15.10;76.80;;;;;;5073936;28;20028;-69
2023/05/23 07:20:07;;;;;;;8.65;4.03;;;15.30;75.60;;;;;;5072845;28;20038;-68
2023/05/23 07:22:32;;;;;;;9.05;4.15;;;15.50;74.80;;;;;;5075510;28;20112;-70
2023/05/23 07:24:58;;;;;;;11.57;4.40;;;15.50;74.20;;;;;;5072001;28;20852;-69
2023/05/23 07:27:25;;;;;;;7.82;4.10;;;15.60;73.00;;;;;;5066500;28;20023;-68
2023/05/23 07:29:51;;;;;;;7.97;3.95;;;15.70;72.20;;;;;;5065384;28;20108;-70
2023/05/23 07:32:17;;;;;;;8.82;4.45;;;15.80;71.90;;;;;;5067893;28;20020;-70
2023/05/23 07:34:42;;;;;;;7.15;4.32;;;15.80;71.00;;;;;;5068205;28;20024;-68
2023/05/23 07:37:08;;;;;;;9.05;4.10;;;15.80;70.60;;;;;;5067705;28;20016;-67
2023/05/23 07:39:33;;;;;;;8.00;4.10;;;15.80;70.80;;;;;;5072105;28;20436;-67
2023/05/23 07:41:59;;;;;;;8.02;4.22;;;15.80;70.10;;;;;;5073305;28;20024;-68
2023/05/23 07:44:25;;;;;;;9.43;4.03;;;15.80;69.70;;;;;;5077946;28;20031;-68
2023/05/23 07:46:50;;;;;;;10.02;4.68;;;15.90;69.50;;;;;;5085075;28;20047;-68
2023/05/23 07:49:16;;;;;;;7.63;4.20;;;16.10;69.20;;;;;;5081544;28;20024;-68
2023/05/23 07:51:42;;;;;;;8.30;3.88;;;16.20;68.40;;;;;;5076243;28;20150;-68
2023/05/23 07:54:07;;;;;;;11.00;4.45;;;16.40;68.10;;;;;;5068797;28;20029;-69
2023/05/23 07:56:37;;;;;;;9.40;4.28;;;16.30;68.00;;;;;;5063121;28;20023;-69
2023/05/23 07:59:03;;;;;;;6.60;3.88;;;16.20;68.20;;;;;;5069100;28;20020;-68
2023/05/23 08:01:29;;;;;;;7.53;3.50;;;16.10;68.50;;;;;;5070114;28;20521;-68
2023/05/23 08:03:54;;;;;;;7.55;3.47;;;16.10;69.40;;;;;;5070134;28;20028;-69
2023/05/23 08:06:20;;;;;;;8.25;3.22;;;16.00;69.40;;;;;;5069520;28;20052;-69
2023/05/23 08:08:45;;;;;;;6.97;2.63;;;16.00;70.00;;;;;;5076762;28;20106;-68
2023/05/23 08:11:11;;;;;;;6.65;2.67;;;15.90;70.20;;;;;;5076342;28;20024;-69
2023/05/23 08:13:36;;;;;;;4.45;2.38;;;15.80;70.30;;;;;;5066429;28;20033;-68
2023/05/23 08:16:02;;;;;;;7.03;3.00;;;15.80;70.80;;;;;;5069563;28;20029;-68
2023/05/23 08:18:29;;;;;;;5.57;2.80;;;15.80;70.90;;;;;;5071794;28;20026;-69
2023/05/23 08:20:55;;;;;;;6.88;2.38;;;15.70;71.00;;;;;;5087521;28;20024;-68
2023/05/23 08:23:21;;;;;;;8.80;2.67;;;15.60;70.90;;;;;;5078434;28;20518;-69
2023/05/23 08:25:46;;;;;;;6.68;2.65;;;15.70;71.00;;;;;;5084078;28;20023;-69
2023/05/23 08:28:12;;;;;;;9.75;2.78;;;15.90;70.60;;;;;;5074571;28;20028;-70
2023/05/23 08:30:38;;;;;;;7.38;2.50;;;16.10;69.50;;;;;;5064704;28;20040;-69
2023/05/23 08:33:03;;;;;;;8.15;3.08;;;16.10;68.80;;;;;;5070795;28;20383;-69
2023/05/23 08:35:33;;;;;;;8.57;2.90;;;16.20;68.40;;;;;;5062610;28;20052;-69
2023/05/23 08:38:00;;;;;;;5.55;2.30;;;16.20;67.70;;;;;;5052338;28;20025;-69
2023/05/23 08:40:28;;;;;;;8.38;2.92;;;16.30;67.80;;;;;;5067042;28;20038;-69
2023/05/23 08:42:54;;;;;;;8.52;2.65;;;16.50;67.40;;;;;;5063140;28;20028;-69
2023/05/23 08:45:20;;;;;;;6.55;2.40;;;16.60;66.50;;;;;;5074564;28;20455;-69
2023/05/23 08:47:46;;;;;;;6.03;2.42;;;16.60;66.10;;;;;;5073987;28;20019;-69
2023/05/23 08:50:13;;;;;;;6.75;2.40;;;16.70;66.30;;;;;;5069793;28;20391;-69
2023/05/23 08:52:49;;;;;;;6.57;2.20;;;16.70;66.40;;;;;;5059051;28;20039;-69
2023/05/23 08:55:16;;;;;;;8.68;2.58;;;16.60;66.40;;;;;;5061065;28;20391;-71
2023/05/23 08:57:42;;;;;;;7.68;2.20;;;16.70;66.80;;;;;;5061223;28;20052;-69
2023/05/23 09:00:13;;;;;;;7.78;2.50;;;16.70;66.70;;;;;;5056878;28;20391;-68
2023/05/23 09:02:42;;;;;;;7.20;2.57;;;16.70;66.40;;;;;;5067961;28;20017;-70
2023/05/23 09:05:08;;;;;;;8.27;2.60;;;16.60;65.80;;;;;;5074878;28;20078;-68
2023/05/23 09:07:35;;;;;;;8.30;2.60;;;16.70;65.80;;;;;;5070356;28;20028;-69
2023/05/23 09:10:04;;;;;;;7.40;2.45;;;16.70;65.10;;;;;;5057004;28;20033;-68
2023/05/23 09:12:32;;;;;;;7.93;2.40;;;16.70;65.00;;;;;;5064840;28;20025;-69
2023/05/23 09:14:58;;;;;;;6.22;2.72;;;16.80;64.50;;;;;;5060929;28;20033;-70
2023/05/23 09:17:23;;;;;;;8.40;2.50;;;16.80;63.50;;;;;;5076564;28;20030;-68
2023/05/23 09:19:49;;;;;;;8.20;2.17;;;16.90;63.10;;;;;;5065459;28;20079;-68
2023/05/23 09:22:15;;;;;;;7.70;2.60;;;16.90;62.90;;;;;;5058646;28;20012;-69
2023/05/23 09:24:41;;;;;;;8.75;2.90;;;16.90;62.40;;;;;;5064286;28;20130;-69
2023/05/23 09:27:07;;;;;;;9.10;2.83;;;16.90;62.30;;;;;;5068421;28;20350;-70
2023/05/23 09:29:37;;;;;;;10.13;3.03;;;16.90;62.20;;;;;;5064972;28;20029;-69
2023/05/23 09:32:18;;;;;;;10.00;2.65;;;16.80;62.30;;;;;;5067086;28;20024;-69
2023/05/23 09:35:04;;;;;;;9.13;2.70;;;16.90;62.70;;;;;;5066382;28;20520;-69
2023/05/23 09:37:31;;;;;;;9.00;2.58;;;17.00;62.60;;;;;;5059927;28;20552;-68
2023/05/23 09:39:58;;;;;;;8.65;2.75;;;17.10;61.70;;;;;;5064958;28;20448;-71
2023/05/23 09:42:30;;;;;;;8.77;2.60;;;16.90;61.10;;;;;;5070435;28;20060;-69
2023/05/23 09:44:55;;;;;;;6.45;2.30;;;16.90;61.50;;;;;;5067896;28;20017;-68
2023/05/23 09:47:21;;;;;;;7.05;2.35;;;16.90;61.80;;;;;;5069459;28;20027;-69
2023/05/23 09:49:47;;;;;;;8.40;2.72;;;17.00;61.60;;;;;;5068082;28;20197;-68
2023/05/23 09:52:12;;;;;;;8.40;2.70;;;17.00;61.50;;;;;;5071444;28;21278;-69
2023/05/23 09:54:39;;;;;;;7.85;2.42;;;17.10;61.40;;;;;;5073288;28;20028;-69
2023/05/23 09:57:09;;;;;;;10.35;2.90;;;17.20;61.10;;;;;;5073019;28;20383;-68
2023/05/23 09:59:38;;;;;;;7.78;2.45;;;17.20;61.30;;;;;;5070083;28;20059;-68
2023/05/23 10:02:07;;;;;;;10.60;3.13;;;17.30;61.00;;;;;;5072255;28;20399;-70
2023/05/23 10:04:34;;;;;;;8.48;2.72;;;17.30;60.20;;;;;;5072854;28;20044;-68
2023/05/23 10:07:21;;;;;;;9.20;3.00;;;17.30;60.10;;;;;;5070892;28;20198;-68
2023/05/23 10:09:58;;;;;;;8.48;3.13;;;17.50;59.70;;;;;;5070804;28;20046;-68
2023/05/23 10:12:54;;;;;;;8.02;2.67;;;17.60;59.10;;;;;;5074114;28;20032;-70
2023/05/23 10:15:22;;;;;;;7.63;2.95;;;17.70;58.70;;;;;;5071215;28;20554;-69
2023/05/23 10:18:16;;;;;;;12.65;3.33;;;17.70;57.50;;;;;;5068785;28;20019;-70
2023/05/23 10:20:46;;;;;;;9.32;3.35;;;17.70;57.20;;;;;;5071772;28;20330;-69
2023/05/23 10:23:12;;;;;;;8.85;2.85;;;17.70;57.00;;;;;;5071633;28;20052;-68
2023/05/23 10:25:40;;;;;;;7.38;2.80;;;17.80;57.00;;;;;;5071072;28;20025;-69
2023/05/23 10:28:06;;;;;;;7.93;2.90;;;17.80;56.50;;;;;;5066107;28;20036;-68
2023/05/23 10:30:33;;;;;;;10.45;2.72;;;18.10;56.90;;;;;;5057292;28;20101;-68
2023/05/23 10:33:00;;;;;;;9.30;2.75;;;18.40;55.00;;;;;;5068737;28;20457;-69
2023/05/23 10:35:55;;;;;;;6.90;2.40;;;18.40;54.80;;;;;;5061439;28;20027;-68
2023/05/23 10:38:27;;;;;;;6.88;2.60;;;18.60;55.00;;;;;;5071500;28;20495;-70
2023/05/23 10:41:18;;;;;;;10.63;2.85;;;18.70;54.20;;;;;;5074454;28;20036;-69
2023/05/23 10:44:11;;;;;;;12.00;2.90;;;18.70;53.90;;;;;;5067430;28;20074;-69
2023/05/23 10:46:54;;;;;;;10.45;3.40;;;18.60;53.70;;;;;;5072178;28;20028;-69
2023/05/23 10:49:38;;;;;;;8.40;3.03;;;18.60;54.00;;;;;;5070961;28;20035;-69
2023/05/23 10:52:06;;;;;;;11.32;2.97;;;18.70;54.00;;;;;;5072741;28;20032;-69
2023/05/23 10:54:36;;;;;;;8.25;2.85;;;18.80;54.20;;;;;;5070065;28;20502;-69
2023/05/23 10:57:05;;;;;;;9.18;2.60;;;18.90;53.80;;;;;;5049872;28;20031;-69
2023/05/23 10:59:31;;;;;;;7.93;2.58;;;18.90;53.50;;;;;;5071547;28;20498;-68
2023/05/23 11:01:58;;;;;;;8.10;2.92;;;19.00;53.60;;;;;;5072535;28;20041;-69
2023/05/23 11:04:26;;;;;;;8.40;2.60;;;19.00;53.00;;;;;;5073906;28;20510;-69
2023/05/23 11:06:53;;;;;;;8.77;2.72;;;19.20;53.30;;;;;;5078944;28;20029;-69
2023/05/23 11:09:20;;;;;;;7.43;2.60;;;19.30;53.30;;;;;;5079068;28;20039;-68
2023/05/23 11:11:53;;;;;;;7.07;2.65;;;19.20;52.50;;;;;;5070161;28;20044;-69
2023/05/23 11:14:31;;;;;;;7.05;2.75;;;19.30;52.80;;;;;;5069099;28;20029;-69
2023/05/23 11:16:57;;;;;;;6.45;2.60;;;19.40;52.30;;;;;;5067393;28;20025;-69
2023/05/23 11:19:27;;;;;;;7.90;2.63;;;19.60;52.00;;;;;;5072024;28;20122;-67
2023/05/23 11:22:04;;;;;;;7.97;2.70;;;19.70;51.50;;;;;;5069947;28;20082;-68
2023/05/23 11:24:53;;;;;;;10.20;3.15;;;19.80;50.60;;;;;;5071976;28;20044;-70
2023/05/23 11:27:39;;;;;;;7.78;2.60;;;19.80;51.00;;;;;;5073137;28;20032;-70
2023/05/23 11:30:16;;;;;;;7.57;2.47;;;19.70;50.70;;;;;;5069023;28;20513;-69
2023/05/23 11:32:49;;;;;;;8.07;2.75;;;19.80;50.90;;;;;;5069457;28;20028;-68
2023/05/23 11:35:15;;;;;;;6.75;2.90;;;19.90;50.80;;;;;;5091496;27;20089;-70
2023/05/23 11:37:42;;;;;;;8.10;2.72;;;19.90;50.60;;;;;;5068305;28;20347;-69
2023/05/23 11:40:47;;;;;;;7.82;2.67;;;19.90;50.60;;;;;;5070744;28;20115;-71
2023/05/23 11:43:15;;;;;;;7.35;2.42;;;19.70;50.40;;;;;;5013305;28;20022;-70
2023/05/23 11:45:41;;;;;;;7.78;2.15;;;19.70;50.50;;;;;;5009005;28;20396;-70
2023/05/23 11:48:15;;;;;;;7.68;2.00;;;19.80;50.50;;;;;;5038014;28;20061;-69
2023/05/23 11:50:50;;;;;;;8.88;2.65;;;20.00;50.20;;;;;;5069357;28;20124;-69
2023/05/23 11:53:19;;;;;;;7.65;2.40;;;20.10;49.30;;;;;;5076053;28;20029;-67
2023/05/23 11:56:00;;;;;;;7.35;2.38;;;20.00;49.70;;;;;;5069018;28;20031;-69
2023/05/23 11:58:37;;;;;;;10.88;3.10;;;19.80;50.40;;;;;;5067414;28;20036;-67
2023/05/23 12:01:08;;;;;;;5.95;2.30;;;19.80;50.80;;;;;;5084807;28;20032;-67
2023/05/23 12:03:34;;;;;;;7.30;2.45;;;19.70;50.00;;;;;;5085715;28;20027;-70
2023/05/23 12:06:03;;;;;;;9.38;2.78;;;19.80;50.10;;;;;;5070375;28;20099;-68
2023/05/23 12:08:28;;;;;;;7.22;2.60;;;19.90;49.10;;;;;;5072192;28;20548;-68
2023/05/23 12:10:59;;;;;;;8.07;2.42;;;20.10;49.30;;;;;;5094786;28;20022;-68
2023/05/23 12:13:26;;;;;;;6.55;2.00;;;20.10;48.70;;;;;;5073351;28;20031;-68
2023/05/23 12:15:57;;;;;;;8.13;2.20;;;20.00;48.60;;;;;;5082726;28;20099;-68
2023/05/23 12:18:26;;;;;;;7.25;2.40;;;19.80;48.20;;;;;;5070008;28;20025;-68
2023/05/23 12:20:52;;;;;;;9.43;2.53;;;19.70;48.30;;;;;;5069443;28;20032;-68
2023/05/23 12:23:22;;;;;;;7.00;2.30;;;19.60;48.40;;;;;;5069238;28;20037;-70
2023/05/23 12:25:55;;;;;;;6.75;2.17;;;19.50;48.80;;;;;;5066825;28;20691;-68
2023/05/23 12:28:33;;;;;;;6.05;2.42;;;19.70;48.00;;;;;;5058364;28;20032;-69
2023/05/23 12:30:58;;;;;;;4.70;2.22;;;19.70;47.00;;;;;;5066371;28;20047;-70
2023/05/23 12:33:24;;;;;;;7.13;2.30;;;19.70;47.20;;;;;;5067408;28;20025;-68
2023/05/23 12:35:50;;;;;;;6.57;2.30;;;19.80;47.70;;;;;;5073161;28;20502;-68
2023/05/23 12:38:16;;;;;;;6.93;2.10;;;19.80;48.10;;;;;;5075211;28;20483;-68
2023/05/23 12:40:42;;;;;;;9.35;2.63;;;20.00;48.40;;;;;;5068152;28;20025;-67
2023/05/23 12:43:08;;;;;;;7.30;2.20;;;20.20;47.90;;;;;;5070709;28;20086;-68
2023/05/23 12:45:35;;;;;;;6.28;2.25;;;20.10;47.30;;;;;;5055936;28;20437;-68
2023/05/23 12:48:05;;;;;;;5.18;1.90;;;19.80;47.10;;;;;;5075515;28;20028;-67